createdAt,value
2019-04-03T00:05:30.576Z,9.75
2019-04-03T00:11:25.562Z,12
2019-04-03T00:17:20.616Z,10.39
2019-04-03T00:23:15.587Z,11.97
2019-04-03T00:29:10.569Z,9.48
2019-04-03T00:35:05.601Z,8.33
2019-04-03T00:41:00.600Z,8.76
2019-04-03T00:46:56.133Z,8.59
2019-04-03T00:52:50.589Z,10.06
2019-04-03T00:58:45.591Z,9.77
2019-04-03T01:04:40.605Z,7.98
2019-04-03T01:10:35.626Z,7.15
2019-04-03T01:16:32.261Z,8.19
2019-04-03T01:22:25.634Z,10.09
2019-04-03T01:28:20.684Z,10.74
2019-04-03T01:34:17.370Z,11.43
2019-04-03T01:40:10.643Z,10.81
2019-04-03T01:46:05.779Z,11
2019-04-03T01:52:00.917Z,9.29
2019-04-03T01:57:55.644Z,9.18
2019-04-03T02:03:50.639Z,9.37
2019-04-03T02:09:46.534Z,13.06
2019-04-03T02:15:40.687Z,12.6
2019-04-03T02:21:35.814Z,12.6
2019-04-03T02:27:31.660Z,9.96
2019-04-03T02:33:28.126Z,7.93
2019-04-03T02:39:20.700Z,6.46
2019-04-03T02:45:15.682Z,6.22
2019-04-03T02:51:10.688Z,5.12
2019-04-03T02:57:05.781Z,5.94
2019-04-03T03:03:01.029Z,5.88
2019-04-03T03:08:55.701Z,5.78
2019-04-03T03:14:50.686Z,5.59
2019-04-03T03:20:45.681Z,6.02
2019-04-03T03:26:51.733Z,6.69
2019-04-03T03:32:37.272Z,5.32
2019-04-03T03:38:41.994Z,5.95
2019-04-03T03:44:25.804Z,6.89
2019-04-03T03:50:23.806Z,6.6
2019-04-03T03:56:15.710Z,5.91
2019-04-03T04:02:10.724Z,6.56
2019-04-03T04:08:08.920Z,6.83
2019-04-03T04:14:00.771Z,6.96
2019-04-03T04:19:55.739Z,6.09
2019-04-03T04:25:50.754Z,6.43
2019-04-03T04:31:48.031Z,6.92
2019-04-03T04:37:51.901Z,6.1
2019-04-03T04:43:35.726Z,5.48
2019-04-03T04:49:30.941Z,5.81
2019-04-03T04:55:30.504Z,7.27
2019-04-03T05:01:20.978Z,6.64
2019-04-03T05:07:16.876Z,7.11
2019-04-03T05:13:13.819Z,6.68
2019-04-03T05:19:09.932Z,9.16
2019-04-03T05:25:00.798Z,8.59
2019-04-03T05:30:55.767Z,9.29
2019-04-03T05:36:50.758Z,10.27
2019-04-03T05:42:45.770Z,10.4
2019-04-03T05:48:40.782Z,8.76
2019-04-03T05:54:38.354Z,10.21
2019-04-03T06:00:30.817Z,9.67
2019-04-03T06:24:10.792Z,9.48
2019-04-03T06:30:06.470Z,9.3
2019-04-03T06:41:55.809Z,8.79
2019-04-03T06:47:50.835Z,10.48
2019-04-03T06:53:45.943Z,11.15
2019-04-03T06:59:40.888Z,12.44
2019-04-03T07:05:35.822Z,12.81
2019-04-03T07:11:30.830Z,13.32
2019-04-03T07:17:26.092Z,12.8
2019-04-03T07:23:20.892Z,12.14
2019-04-03T07:29:16.610Z,11.07
2019-04-03T07:35:10.900Z,11.39
2019-04-03T07:41:06.178Z,13.96
2019-04-03T07:47:03.211Z,14.68
2019-04-03T07:52:55.852Z,11.03
2019-04-03T07:58:51.057Z,13.13
2019-04-03T08:04:45.869Z,13.94
2019-04-03T08:10:40.861Z,11.82
2019-04-03T08:46:11.027Z,13.82
2019-04-03T08:52:06.190Z,17.46
2019-04-03T08:58:01.083Z,20.63
2019-04-03T09:03:55.945Z,19.67
2019-04-03T09:09:56.420Z,19.12
2019-04-03T09:15:45.911Z,19.29
2019-04-03T09:21:41.034Z,19.69
2019-04-03T09:27:59.263Z,17.31
2019-04-03T09:33:30.926Z,19.22
2019-04-03T09:39:26.160Z,17.6
2019-04-03T09:45:20.935Z,18.39
2019-04-03T09:51:16.003Z,18.56
2019-04-03T09:57:11.100Z,20.98
2019-04-03T10:03:11.050Z,19.23
2019-04-03T10:21:01.594Z,19.35
2019-04-03T10:26:57.063Z,13.93
2019-04-03T10:32:45.045Z,11.99
2019-04-03T10:38:36.722Z,11.18
2019-04-03T10:44:54.439Z,11.94
2019-04-03T10:50:26.278Z,11.92
2019-04-03T10:56:24.873Z,9.83
2019-04-03T11:02:39.223Z,9.09
2019-04-03T11:08:13.228Z,22.41
2019-04-03T11:14:13.150Z,12.2
2019-04-03T11:20:02.329Z,8.12
2019-04-03T11:25:56.042Z,12.73
2019-04-03T11:31:51.085Z,11.67
2019-04-03T11:37:45.991Z,12.82
2019-04-03T11:43:41.076Z,11.99
2019-04-03T11:49:36.016Z,12.1
2019-04-03T12:01:32.471Z,16.22
2019-04-03T12:07:21.037Z,19.37
2019-04-03T12:13:20.574Z,21.7
2019-04-03T12:36:56.069Z,21.57
2019-04-03T12:36:56.166Z,13.58
2019-04-03T12:36:56.230Z,13.58
2019-04-03T12:54:42.764Z,13.83
2019-04-03T12:54:42.772Z,13.83
2019-04-03T12:54:42.811Z,13.83
2019-04-03T13:00:36.068Z,13.19
2019-04-03T13:06:42.459Z,11.68
2019-04-03T13:12:27.333Z,9.67
2019-04-03T13:18:21.064Z,11.07
2019-04-03T13:30:12.773Z,10.68
2019-04-03T13:36:06.250Z,10.38
2019-04-03T13:42:01.105Z,12.29
2019-04-03T13:47:56.489Z,11.7
2019-04-03T13:59:47.414Z,9.12
2019-04-03T13:59:47.415Z,9.12
2019-04-03T14:05:43.190Z,7.72
2019-04-03T14:11:36.475Z,8.02
2019-04-03T14:17:31.127Z,7.23
2019-04-03T14:23:39.839Z,6.75
2019-04-03T14:35:41.827Z,7.23
2019-04-03T14:35:41.830Z,7.33
2019-04-03T14:41:11.153Z,7.16
2019-04-03T14:47:06.146Z,5.92
2019-04-03T14:53:01.531Z,6.32
2019-04-03T14:58:57.973Z,8.02
2019-04-03T15:04:51.229Z,7.94
2019-04-03T15:10:46.213Z,7.79
2019-04-03T15:16:41.157Z,7.08
2019-04-03T15:22:36.277Z,6.73
2019-04-03T15:28:31.829Z,6.91
2019-04-03T15:34:27.609Z,6.16
2019-04-03T15:40:22.760Z,9.11
2019-04-03T15:46:16.573Z,9.53
2019-04-03T15:52:18.528Z,9.05
2019-04-03T15:58:06.217Z,8.09
2019-04-03T16:04:01.404Z,7.07
2019-04-03T16:09:56.224Z,8.34
2019-04-03T16:15:52.856Z,7.5
2019-04-03T16:21:47.628Z,7.9
2019-04-03T16:27:41.219Z,8.44
2019-04-03T16:33:36.887Z,7.07
2019-04-03T16:39:32.409Z,7.27
2019-04-03T16:51:21.441Z,11.66
2019-04-03T16:51:21.441Z,7.05
2019-04-03T16:57:18.011Z,17.01
2019-04-03T17:03:11.242Z,13.53
2019-04-03T17:09:06.660Z,15.54
2019-04-03T17:15:01.850Z,13.27
2019-04-03T17:20:56.988Z,12.6
2019-04-03T17:26:55.525Z,10.35
2019-04-03T17:38:46.664Z,12.94
2019-04-03T17:38:46.664Z,12.94
2019-04-03T17:44:38.283Z,22.36
2019-04-03T17:50:31.324Z,15.34
2019-04-03T17:56:26.307Z,16.45
2019-04-03T18:02:22.749Z,15.51
2019-04-03T18:08:25.791Z,17.99
2019-04-03T18:14:11.297Z,18.16
2019-04-03T18:20:13.432Z,16.19
2019-04-03T18:26:03.160Z,18.14
2019-04-03T18:38:02.464Z,17.51
2019-04-03T18:49:41.348Z,13.11
2019-04-03T18:49:41.390Z,11.25
2019-04-03T18:55:36.363Z,10.91
2019-04-03T19:01:32.469Z,13.13
2019-04-03T19:07:37.463Z,11.58
2019-04-03T19:13:21.348Z,12.72
2019-04-03T19:19:23.545Z,11.68
2019-04-03T19:37:12.503Z,11.76
2019-04-03T19:37:12.712Z,11.76
2019-04-03T19:42:56.561Z,11.42
2019-04-03T19:48:51.412Z,10.37
2019-04-03T19:54:46.371Z,9.76
2019-04-03T20:00:41.589Z,10.61
2019-04-03T20:06:36.378Z,10.67
2019-04-03T20:12:35.765Z,13.19
2019-04-03T20:18:26.602Z,11.16
2019-04-03T20:24:21.585Z,17.69
2019-04-03T20:30:16.621Z,11.68
2019-04-03T20:36:16.606Z,10.82
2019-04-03T20:42:07.976Z,13.13
2019-04-03T20:48:09.958Z,12.49
2019-04-03T20:53:56.400Z,14.6
2019-04-03T20:59:57.781Z,13.47
2019-04-03T21:05:51.174Z,11.02
2019-04-03T21:11:52.439Z,14.27
2019-04-03T21:17:42.954Z,11.87
2019-04-03T21:23:33.172Z,11.01
2019-04-03T21:29:30.202Z,9.67
2019-04-03T21:35:21.489Z,8.57
2019-04-03T21:41:16.435Z,8.36
2019-04-03T21:47:12.122Z,8.34
2019-04-03T21:53:09.155Z,7.77
2019-04-03T21:59:01.453Z,7.7
2019-04-03T22:04:56.433Z,8.03
2019-04-03T22:10:51.453Z,7.81
2019-04-03T22:16:55.218Z,7.39
2019-04-03T22:22:52.695Z,8.78
2019-04-03T22:28:36.455Z,8.45
2019-04-03T22:34:42.629Z,9.78
2019-04-03T22:40:26.494Z,7.12
2019-04-03T22:46:21.962Z,7.42
2019-04-03T22:52:16.490Z,8.54
2019-04-03T22:58:11.542Z,9.2
2019-04-03T23:04:06.491Z,7.49
2019-04-03T23:10:01.526Z,8.55
2019-04-03T23:15:58.910Z,7.66
2019-04-03T23:21:58.765Z,7.26
2019-04-03T23:27:46.488Z,7.77
2019-04-03T23:33:41.514Z,9.21
2019-04-03T23:39:37.450Z,8.68
2019-04-03T23:45:31.611Z,8.76
2019-04-03T23:51:27.894Z,9.47
2019-04-03T23:57:21.530Z,8.91
